createdAt,value
2017-09-02T00:00:51.225Z,32.00
2017-09-02T00:03:17.901Z,25.67
2017-09-02T00:05:44.558Z,26.43
2017-09-02T00:08:11.229Z,34.40
2017-09-02T00:10:37.881Z,27.40
2017-09-02T00:13:04.533Z,29.50
2017-09-02T00:15:31.205Z,33.17
2017-09-02T00:17:57.856Z,29.20
2017-09-02T00:20:24.526Z,32.17
2017-09-02T00:22:51.208Z,42.50
2017-09-02T00:25:17.898Z,26.60
2017-09-02T00:27:44.559Z,27.93
2017-09-02T00:30:11.225Z,26.90
2017-09-02T00:32:37.902Z,32.60
2017-09-02T00:35:04.579Z,29.93
2017-09-02T00:37:31.233Z,29.10
2017-09-02T00:39:57.925Z,36.90
2017-09-02T00:42:24.578Z,33.60
2017-09-02T00:47:15.932Z,36.23
2017-09-02T00:49:43.389Z,25.70
2017-09-02T00:52:10.851Z,26.37
2017-09-02T00:54:38.334Z,29.10
2017-09-02T00:57:05.790Z,22.73
2017-09-02T00:59:33.250Z,26.80
2017-09-02T01:02:00.738Z,26.60
2017-09-02T01:04:28.198Z,34.03
2017-09-02T01:06:55.654Z,28.13
2017-09-02T01:09:23.151Z,29.07
2017-09-02T01:11:50.606Z,32.30
2017-09-02T01:14:18.072Z,37.33
2017-09-02T01:16:45.551Z,31.13
2017-09-02T01:19:13.011Z,33.10
2017-09-02T01:21:40.466Z,31.87
2017-09-02T01:24:07.946Z,33.33
2017-09-02T01:26:35.397Z,34.20
2017-09-02T01:29:02.862Z,30.80
2017-09-02T01:31:30.358Z,31.50
2017-09-02T01:33:57.846Z,28.17
2017-09-02T01:36:25.327Z,31.17
2017-09-02T01:38:52.815Z,39.93
2017-09-02T01:41:20.271Z,34.27
2017-09-02T01:43:47.734Z,33.50
2017-09-02T01:46:15.214Z,32.90
2017-09-02T01:48:42.670Z,37.73
2017-09-02T01:51:10.127Z,29.70
2017-09-02T01:53:37.606Z,40.73
2017-09-02T01:56:05.059Z,36.33
2017-09-02T01:58:32.518Z,42.73
2017-09-02T02:00:59.998Z,52.30
2017-09-02T02:03:27.455Z,45.37
2017-09-02T02:05:54.910Z,43.33
2017-09-02T02:08:22.391Z,43.17
2017-09-02T02:10:49.850Z,41.17
2017-09-02T02:13:17.311Z,42.40
2017-09-02T02:15:44.812Z,38.83
2017-09-02T02:18:12.266Z,40.20
2017-09-02T02:20:39.722Z,41.23
2017-09-02T02:23:07.206Z,39.83
2017-09-02T02:25:34.666Z,44.90
2017-09-02T02:28:02.127Z,44.17
2017-09-02T02:30:29.603Z,50.90
2017-09-02T02:32:57.062Z,50.13
2017-09-02T02:35:24.523Z,46.83
2017-09-02T02:37:52.011Z,47.33
2017-09-02T02:40:19.466Z,54.23
2017-09-02T02:42:46.934Z,64.73
2017-09-02T02:45:14.414Z,55.83
2017-09-02T02:47:41.870Z,55.43
2017-09-02T02:50:09.330Z,57.00
2017-09-02T02:52:36.840Z,51.80
2017-09-02T02:55:04.302Z,64.77
2017-09-02T02:57:31.762Z,66.27
2017-09-02T02:59:59.247Z,67.23
2017-09-02T03:02:26.716Z,67.73
2017-09-02T03:04:54.179Z,63.83
2017-09-02T03:07:21.658Z,66.10
2017-09-02T03:09:49.114Z,54.30
2017-09-02T03:12:16.570Z,52.43
2017-09-02T03:14:44.062Z,52.30
2017-09-02T03:17:11.523Z,46.47
2017-09-02T03:19:38.982Z,55.77
2017-09-02T03:22:06.472Z,48.20
2017-09-02T03:24:33.934Z,49.03
2017-09-02T03:27:01.391Z,45.03
2017-09-02T03:29:28.874Z,44.93
2017-09-02T03:31:56.330Z,45.40
2017-09-02T03:34:23.794Z,57.37
2017-09-02T03:36:51.270Z,54.03
2017-09-02T03:39:18.729Z,48.20
2017-09-02T03:41:46.197Z,48.17
2017-09-02T03:44:13.678Z,53.43
2017-09-02T03:46:41.143Z,59.33
2017-09-02T03:49:08.601Z,49.47
2017-09-02T03:51:36.078Z,57.93
2017-09-02T03:54:03.534Z,44.43
2017-09-02T03:56:30.990Z,52.90
2017-09-02T03:58:58.474Z,47.80
2017-09-02T04:01:25.926Z,37.67
2017-09-02T04:03:53.387Z,44.60
2017-09-02T04:06:20.870Z,38.70
2017-09-02T04:08:48.337Z,43.27
2017-09-02T04:11:15.793Z,36.23
2017-09-02T04:13:43.286Z,41.63
2017-09-02T04:16:10.742Z,75.93
2017-09-02T04:18:38.198Z,82.90
2017-09-02T04:21:05.678Z,90.30
2017-09-02T04:23:33.134Z,83.90
2017-09-02T04:26:00.593Z,90.73
2017-09-02T04:28:28.074Z,79.60
2017-09-02T04:30:55.535Z,86.20
2017-09-02T04:33:22.994Z,90.60
2017-09-02T04:35:50.486Z,74.93
2017-09-02T04:38:17.942Z,82.27
2017-09-02T04:40:45.399Z,89.77
2017-09-02T04:43:12.890Z,80.10
2017-09-02T04:45:40.342Z,89.27
2017-09-02T04:48:07.798Z,71.40
2017-09-02T04:50:35.283Z,78.93
2017-09-02T04:53:02.759Z,87.10
2017-09-02T04:55:30.223Z,115.17
2017-09-02T04:57:57.727Z,136.13
2017-09-02T05:00:25.191Z,111.50
2017-09-02T05:02:52.651Z,99.70
2017-09-02T05:05:20.134Z,90.87
2017-09-02T05:07:47.590Z,97.53
2017-09-02T05:10:15.051Z,94.80
2017-09-02T05:12:42.543Z,84.23
2017-09-02T05:15:10.007Z,102.27
2017-09-02T05:17:37.474Z,96.07
2017-09-02T05:20:04.966Z,107.13
2017-09-02T05:22:32.422Z,96.30
2017-09-02T05:24:59.891Z,91.37
2017-09-02T05:27:27.370Z,99.17
2017-09-02T05:29:54.823Z,97.60
2017-09-02T05:32:22.302Z,100.03
2017-09-02T05:34:49.786Z,91.77
2017-09-02T05:37:17.243Z,76.77
2017-09-02T05:39:44.704Z,75.10
2017-09-02T05:42:12.194Z,82.90
2017-09-02T05:44:39.658Z,81.30
2017-09-02T05:47:07.114Z,78.13
2017-09-02T05:49:34.599Z,79.17
2017-09-02T05:52:02.062Z,88.47
2017-09-02T05:54:29.517Z,72.57
2017-09-02T05:56:57.002Z,97.93
2017-09-02T05:59:24.474Z,75.83
2017-09-02T06:01:51.934Z,78.10
2017-09-02T06:04:19.422Z,79.70
2017-09-02T06:06:46.878Z,88.83
2017-09-02T06:09:14.339Z,71.30
2017-09-02T06:11:41.838Z,63.60
2017-09-02T06:14:09.294Z,67.53
2017-09-02T06:16:36.755Z,65.50
2017-09-02T06:19:04.244Z,59.53
2017-09-02T06:21:31.706Z,67.63
2017-09-02T06:23:59.166Z,69.53
2017-09-02T06:26:26.648Z,52.67
2017-09-02T06:28:54.110Z,57.73
2017-09-02T06:31:21.566Z,47.33
2017-09-02T06:33:49.049Z,51.53
2017-09-02T06:36:16.506Z,53.23
2017-09-02T06:38:43.962Z,60.50
2017-09-02T06:41:11.447Z,63.13
2017-09-02T06:43:38.906Z,58.03
2017-09-02T06:46:06.364Z,60.00
2017-09-02T06:48:33.848Z,55.77
2017-09-02T06:51:01.310Z,58.87
2017-09-02T06:53:28.780Z,64.20
2017-09-02T06:55:56.262Z,70.43
2017-09-02T06:58:23.722Z,65.53
2017-09-02T07:00:51.179Z,68.87
2017-09-02T07:03:18.662Z,65.30
2017-09-02T07:05:46.128Z,62.00
2017-09-02T07:08:13.598Z,75.90
2017-09-02T07:10:41.095Z,67.10
2017-09-02T07:13:08.570Z,62.93
2017-09-02T07:15:36.031Z,59.80
2017-09-02T07:18:03.506Z,59.43
2017-09-02T07:20:30.999Z,64.23
2017-09-02T07:22:58.476Z,61.03
2017-09-02T07:25:25.951Z,63.67
2017-09-02T07:27:53.403Z,60.67
2017-09-02T07:30:20.862Z,71.40
2017-09-02T07:32:48.348Z,54.80
2017-09-02T07:35:15.806Z,64.27
2017-09-02T07:37:43.262Z,65.13
2017-09-02T07:40:10.742Z,53.20
2017-09-02T07:42:38.205Z,57.30
2017-09-02T07:45:05.674Z,54.97
2017-09-02T07:47:33.166Z,60.03
2017-09-02T07:50:00.625Z,51.73
2017-09-02T07:52:28.086Z,56.97
2017-09-02T07:54:55.569Z,58.60
2017-09-02T07:57:23.031Z,56.47
2017-09-02T07:59:50.491Z,55.30
2017-09-02T08:02:17.971Z,54.50
2017-09-02T08:04:45.437Z,60.23
2017-09-02T08:07:12.901Z,51.60
2017-09-02T08:09:40.383Z,50.40
2017-09-02T08:12:07.871Z,53.10
2017-09-02T08:14:35.335Z,67.43
2017-09-02T08:17:03.035Z,58.17
2017-09-02T08:19:30.729Z,52.60
2017-09-02T08:21:58.250Z,61.23
2017-09-02T08:24:25.724Z,58.13
2017-09-02T08:26:53.227Z,55.70
2017-09-02T08:29:20.688Z,52.20
2017-09-02T08:31:48.188Z,52.50
2017-09-02T08:34:15.686Z,54.93
2017-09-02T08:36:43.149Z,60.67
2017-09-02T08:39:10.605Z,55.97
2017-09-02T08:41:38.090Z,53.77
2017-09-02T08:44:05.575Z,48.60
2017-09-02T08:46:33.051Z,56.63
2017-09-02T08:49:00.521Z,60.27
2017-09-02T08:51:27.978Z,53.10
2017-09-02T08:53:55.472Z,65.73
2017-09-02T08:56:22.938Z,54.30
2017-09-02T08:58:50.409Z,52.67
2017-09-02T09:01:17.890Z,56.77
2017-09-02T09:03:45.354Z,48.13
2017-09-02T09:06:12.810Z,51.13
2017-09-02T09:08:40.341Z,50.40
2017-09-02T09:11:07.842Z,51.67
2017-09-02T09:13:35.306Z,54.07
2017-09-02T09:16:02.787Z,46.23
2017-09-02T09:18:30.241Z,50.23
2017-09-02T09:20:57.699Z,47.50
2017-09-02T09:23:25.189Z,45.10
2017-09-02T09:25:52.671Z,33.13
2017-09-02T09:28:20.200Z,37.23
2017-09-02T09:30:47.669Z,35.60
2017-09-02T09:33:15.171Z,40.23
2017-09-02T09:35:42.635Z,50.50
2017-09-02T09:38:10.102Z,35.47
2017-09-02T09:40:37.578Z,37.10
2017-09-02T09:43:05.034Z,36.67
2017-09-02T09:45:32.518Z,29.60
2017-09-02T09:47:59.974Z,31.43
2017-09-02T09:50:27.439Z,30.23
2017-09-02T09:52:54.922Z,27.10
2017-09-02T09:55:22.381Z,33.20
2017-09-02T09:57:49.838Z,25.33
2017-09-02T10:00:17.323Z,27.03
2017-09-02T10:02:44.779Z,27.60
2017-09-02T10:05:12.242Z,27.80
2017-09-02T10:07:39.741Z,26.10
2017-09-02T10:10:07.206Z,28.90
2017-09-02T10:12:34.679Z,25.57
2017-09-02T10:15:02.176Z,25.10
2017-09-02T10:17:29.635Z,18.63
2017-09-02T10:19:57.106Z,18.40
2017-09-02T10:22:24.603Z,19.10
2017-09-02T10:24:52.063Z,17.60
2017-09-02T10:27:19.547Z,22.70
2017-09-02T10:29:47.030Z,21.07
2017-09-02T10:32:14.494Z,32.90
2017-09-02T10:34:41.954Z,16.40
2017-09-02T10:37:09.443Z,22.60
2017-09-02T10:39:36.927Z,17.27
2017-09-02T10:42:04.382Z,23.07
2017-09-02T10:44:31.834Z,18.80
2017-09-02T10:46:59.314Z,16.83
2017-09-02T10:49:26.770Z,18.27
2017-09-02T10:51:54.238Z,14.43
2017-09-02T10:54:21.727Z,15.13
2017-09-02T10:56:49.532Z,24.20
2017-09-02T10:59:17.319Z,17.03
2017-09-02T11:01:44.811Z,16.30
2017-09-02T11:04:12.519Z,18.30
2017-09-02T11:06:39.988Z,24.20
2017-09-02T11:09:07.482Z,16.33
2017-09-02T11:11:34.987Z,23.53
2017-09-02T11:14:02.962Z,20.67
2017-09-02T11:16:30.469Z,16.40
2017-09-02T11:18:57.961Z,12.60
2017-09-02T11:21:25.445Z,19.93
2017-09-02T11:23:52.934Z,17.23
2017-09-02T11:26:20.403Z,21.43
2017-09-02T11:28:47.863Z,23.23
2017-09-02T11:31:15.366Z,25.73
2017-09-02T11:33:42.829Z,20.70
2017-09-02T11:36:10.304Z,16.50
2017-09-02T11:38:37.790Z,17.10
2017-09-02T11:41:05.256Z,21.80
2017-09-02T11:43:32.711Z,16.80
2017-09-02T11:46:00.196Z,20.63
2017-09-02T11:48:27.655Z,14.40
2017-09-02T11:50:55.122Z,30.33
2017-09-02T11:53:22.703Z,17.13
2017-09-02T11:55:50.179Z,16.50
2017-09-02T11:58:17.642Z,19.30
2017-09-02T12:00:45.134Z,25.93
2017-09-02T12:03:12.589Z,18.20
2017-09-02T12:05:40.041Z,29.93
2017-09-02T12:08:07.518Z,20.50
2017-09-02T12:10:34.974Z,26.70
2017-09-02T12:13:02.455Z,19.00
2017-09-02T12:15:29.939Z,20.87
2017-09-02T12:17:57.391Z,31.53
2017-09-02T12:20:24.862Z,27.20
2017-09-02T12:22:52.355Z,24.70
2017-09-02T12:25:19.835Z,29.50
2017-09-02T12:27:47.318Z,22.50
2017-09-02T12:30:14.799Z,28.30
2017-09-02T12:32:42.260Z,31.57
2017-09-02T12:35:09.723Z,25.03
2017-09-02T12:37:37.210Z,19.93
2017-09-02T12:40:04.666Z,21.93
2017-09-02T12:42:32.126Z,23.63
2017-09-02T12:44:59.610Z,16.50
2017-09-02T12:47:27.070Z,22.53
2017-09-02T12:49:54.602Z,27.67
2017-09-02T12:52:22.096Z,18.83
2017-09-02T12:54:49.558Z,22.23
2017-09-02T12:57:17.016Z,20.47
2017-09-02T12:59:44.510Z,15.70
2017-09-02T13:02:11.971Z,23.67
2017-09-02T13:04:39.431Z,25.33
2017-09-02T13:07:06.917Z,22.80
2017-09-02T13:09:34.375Z,24.43
2017-09-02T13:12:01.837Z,19.13
2017-09-02T13:14:29.327Z,14.73
2017-09-02T13:16:56.782Z,16.67
2017-09-02T13:19:24.239Z,20.93
2017-09-02T13:21:51.735Z,18.00
2017-09-02T13:24:19.198Z,14.77
2017-09-02T13:26:46.657Z,14.40
2017-09-02T13:29:14.147Z,17.63
2017-09-02T13:31:41.608Z,12.90
2017-09-02T13:34:09.062Z,41.53
2017-09-02T13:36:36.539Z,41.40
2017-09-02T13:39:04.002Z,18.53
2017-09-02T13:41:31.462Z,15.27
2017-09-02T13:43:58.975Z,16.13
2017-09-02T13:46:26.443Z,17.83
2017-09-02T13:48:53.902Z,19.20
2017-09-02T13:51:21.390Z,22.93
2017-09-02T13:53:48.850Z,17.50
2017-09-02T13:56:16.318Z,11.30
2017-09-02T13:58:43.802Z,21.10
2017-09-02T14:01:11.258Z,19.33
2017-09-02T14:03:38.719Z,25.80
2017-09-02T14:06:06.215Z,31.63
2017-09-02T14:08:33.677Z,31.17
2017-09-02T14:11:01.146Z,61.60
2017-09-02T14:13:28.627Z,24.23
2017-09-02T14:15:56.128Z,18.47
2017-09-02T14:18:23.606Z,21.23
2017-09-02T14:20:51.086Z,14.23
2017-09-02T14:23:18.555Z,19.10
2017-09-02T14:25:46.014Z,15.47
2017-09-02T14:28:13.539Z,18.20
2017-09-02T14:30:40.999Z,15.90
2017-09-02T14:33:08.458Z,17.23
2017-09-02T14:35:35.943Z,25.63
2017-09-02T14:38:03.398Z,15.93
2017-09-02T14:40:30.859Z,22.93
2017-09-02T14:42:58.366Z,14.60
2017-09-02T14:45:25.832Z,12.63
2017-09-02T14:47:53.289Z,13.20
2017-09-02T14:50:20.770Z,11.90
2017-09-02T14:52:48.259Z,10.30
2017-09-02T14:55:15.735Z,18.70
2017-09-02T14:57:43.230Z,16.53
2017-09-02T15:00:10.677Z,11.87
2017-09-02T15:02:38.139Z,23.07
2017-09-02T15:05:05.622Z,15.63
2017-09-02T15:07:33.084Z,14.53
2017-09-02T15:12:34.246Z,12.80
2017-09-02T15:15:01.706Z,12.63
2017-09-02T15:17:29.168Z,22.47
2017-09-02T15:19:56.651Z,15.37
2017-09-02T15:22:24.118Z,15.17
2017-09-02T15:24:51.580Z,13.60
2017-09-02T15:27:19.063Z,15.07
2017-09-02T15:29:46.519Z,16.73
2017-09-02T15:32:13.974Z,17.00
2017-09-02T15:34:41.459Z,12.80
2017-09-02T15:37:08.920Z,15.37
2017-09-02T15:39:36.378Z,19.97
2017-09-02T15:42:03.863Z,16.23
2017-09-02T15:44:31.322Z,17.13
2017-09-02T15:46:58.778Z,13.50
2017-09-02T15:49:26.281Z,13.00
2017-09-02T15:51:53.742Z,16.30
2017-09-02T15:54:21.199Z,18.50
2017-09-02T15:56:48.683Z,24.87
2017-09-02T15:59:16.147Z,20.40
2017-09-02T16:01:43.608Z,14.93
2017-09-02T16:04:11.089Z,20.87
2017-09-02T16:06:38.546Z,16.33
2017-09-02T16:09:06.004Z,17.93
2017-09-02T16:11:33.486Z,22.80
2017-09-02T16:14:00.943Z,17.50
2017-09-02T16:16:28.399Z,18.03
2017-09-02T16:18:55.882Z,13.50
2017-09-02T16:21:23.338Z,24.20
2017-09-02T16:23:50.798Z,18.17
2017-09-02T16:26:18.299Z,17.90
2017-09-02T16:28:45.759Z,23.30
2017-09-02T16:31:13.222Z,23.23
2017-09-02T16:33:40.710Z,17.47
2017-09-02T16:36:08.172Z,17.57
2017-09-02T16:38:35.631Z,20.13
2017-09-02T16:41:03.110Z,13.53
2017-09-02T16:43:30.568Z,14.13
2017-09-02T16:45:58.042Z,13.90
2017-09-02T16:48:25.527Z,19.97
2017-09-02T16:50:52.987Z,17.90
2017-09-02T16:53:20.442Z,15.90
2017-09-02T16:55:47.932Z,13.50
2017-09-02T16:58:15.389Z,19.43
2017-09-02T17:00:42.847Z,15.97
2017-09-02T17:03:10.336Z,15.87
2017-09-02T17:05:37.798Z,17.90
2017-09-02T17:08:05.254Z,19.27
2017-09-02T17:10:32.734Z,18.03
2017-09-02T17:13:00.216Z,19.53
2017-09-02T17:15:27.735Z,14.73
2017-09-02T17:17:55.210Z,18.10
2017-09-02T17:20:22.696Z,13.97
2017-09-02T17:22:50.190Z,12.47
2017-09-02T17:25:17.676Z,13.03
2017-09-02T17:27:45.142Z,18.87
2017-09-02T17:30:12.599Z,12.73
2017-09-02T17:32:40.099Z,10.57
2017-09-02T17:35:07.532Z,13.80
2017-09-02T17:37:35.014Z,12.50
2017-09-02T17:40:02.511Z,13.63
2017-09-02T17:42:29.966Z,13.17
2017-09-02T17:44:57.431Z,13.70
2017-09-02T17:47:24.910Z,15.73
2017-09-02T17:49:52.366Z,13.03
2017-09-02T17:52:19.822Z,16.47
2017-09-02T17:54:47.306Z,14.87
2017-09-02T17:57:14.767Z,11.50
2017-09-02T17:59:42.258Z,14.53
2017-09-02T18:02:09.738Z,21.50
2017-09-02T18:04:37.194Z,12.50
2017-09-02T18:07:04.670Z,15.97
2017-09-02T18:09:32.128Z,13.90
2017-09-02T18:11:59.592Z,16.00
2017-09-02T18:14:27.078Z,16.50
2017-09-02T18:16:54.534Z,16.50
2017-09-02T18:19:21.994Z,13.03
2017-09-02T18:21:49.479Z,18.07
2017-09-02T18:24:16.938Z,14.03
2017-09-02T18:26:44.399Z,15.67
2017-09-02T18:29:11.881Z,16.20
2017-09-02T18:31:39.338Z,13.07
2017-09-02T18:34:06.792Z,15.20
2017-09-02T18:36:34.275Z,15.00
2017-09-02T18:39:01.735Z,17.17
2017-09-02T18:41:29.190Z,15.17
2017-09-02T18:43:56.854Z,16.27
2017-09-02T18:46:24.311Z,14.17
2017-09-02T18:48:51.775Z,15.40
2017-09-02T18:51:19.271Z,18.33
2017-09-02T18:53:46.758Z,15.47
2017-09-02T18:56:14.227Z,16.53
2017-09-02T18:58:41.787Z,15.40
2017-09-02T19:01:09.274Z,15.10
2017-09-02T19:03:36.904Z,17.80
2017-09-02T19:06:04.557Z,20.63
2017-09-02T19:08:32.261Z,20.07
2017-09-02T19:10:59.977Z,17.60
2017-09-02T19:13:28.105Z,21.00
2017-09-02T19:15:56.001Z,22.63
2017-09-02T19:18:24.016Z,17.83
2017-09-02T19:20:52.297Z,20.57
2017-09-02T19:23:20.309Z,20.60
2017-09-02T19:25:48.160Z,24.40
2017-09-02T19:28:16.375Z,19.60
2017-09-02T19:30:44.600Z,18.67
2017-09-02T19:33:12.934Z,15.97
2017-09-02T19:35:41.323Z,20.23
2017-09-02T19:38:09.705Z,20.80
2017-09-02T19:40:37.987Z,22.63
2017-09-02T19:43:06.400Z,18.93
2017-09-02T19:45:34.694Z,18.53
2017-09-02T19:48:02.986Z,26.30
2017-09-02T19:50:31.506Z,15.80
2017-09-02T19:52:59.897Z,17.43
2017-09-02T19:55:28.221Z,21.23
2017-09-02T19:57:56.733Z,17.83
2017-09-02T20:00:25.234Z,17.47
2017-09-02T20:02:53.752Z,20.80
2017-09-02T20:05:22.293Z,14.97
2017-09-02T20:07:50.682Z,18.43
2017-09-02T20:10:19.133Z,21.17
2017-09-02T20:12:47.743Z,17.30
2017-09-02T20:15:16.186Z,21.97
2017-09-02T20:17:44.586Z,19.30
2017-09-02T20:20:13.163Z,17.70
2017-09-02T20:22:41.634Z,20.63
2017-09-02T20:25:10.106Z,19.67
2017-09-02T20:27:38.591Z,30.03
2017-09-02T20:30:07.061Z,19.73
2017-09-02T20:32:35.451Z,18.70
2017-09-02T20:35:03.949Z,19.97
2017-09-02T20:37:32.359Z,18.77
2017-09-02T20:40:00.753Z,22.20
2017-09-02T20:42:29.141Z,21.93
2017-09-02T20:44:57.407Z,21.30
2017-09-02T20:47:25.501Z,22.23
2017-09-02T20:49:53.616Z,21.17
2017-09-02T20:52:21.629Z,19.07
2017-09-02T20:54:49.190Z,19.27
2017-09-02T20:57:16.969Z,21.57
2017-09-02T20:59:44.651Z,20.77
2017-09-02T21:02:12.644Z,21.87
2017-09-02T21:04:40.558Z,21.83
2017-09-02T21:07:08.467Z,38.27
2017-09-02T21:09:36.266Z,26.73
2017-09-02T21:12:03.850Z,24.67
2017-09-02T21:14:31.391Z,28.00
2017-09-02T21:16:58.918Z,20.50
2017-09-02T21:19:26.394Z,26.47
2017-09-02T21:21:54.401Z,23.37
2017-09-02T21:24:21.861Z,28.27
2017-09-02T21:26:49.336Z,28.37
2017-09-02T21:29:16.927Z,28.13
2017-09-02T21:31:44.402Z,25.90
2017-09-02T21:34:11.863Z,28.07
2017-09-02T21:36:39.348Z,28.37
2017-09-02T21:39:06.820Z,25.50
2017-09-02T21:41:34.280Z,28.17
2017-09-02T21:44:01.759Z,26.93
2017-09-02T21:46:29.222Z,27.17
2017-09-02T21:48:56.679Z,30.07
2017-09-02T21:51:24.166Z,25.13
2017-09-02T21:53:51.630Z,24.80
2017-09-02T21:56:19.086Z,28.40
2017-09-02T21:58:46.570Z,28.60
2017-09-02T22:01:15.408Z,28.43
2017-09-02T22:03:42.875Z,29.40
2017-09-02T22:06:10.358Z,30.13
2017-09-02T22:08:37.815Z,30.30
2017-09-02T22:11:05.303Z,28.90
2017-09-02T22:13:32.759Z,33.80
2017-09-02T22:16:00.209Z,29.87
2017-09-02T22:18:27.698Z,28.50
2017-09-02T22:20:55.153Z,30.70
2017-09-02T22:23:22.615Z,29.47
2017-09-02T22:25:50.098Z,33.47
2017-09-02T22:28:17.554Z,37.97
2017-09-02T22:30:45.015Z,31.40
2017-09-02T22:33:12.496Z,43.20
2017-09-02T22:35:39.950Z,35.83
2017-09-02T22:38:07.405Z,37.23
2017-09-02T22:40:34.886Z,36.40
2017-09-02T22:43:02.346Z,42.90
2017-09-02T22:45:29.807Z,35.03
2017-09-02T22:47:57.295Z,34.70
2017-09-02T22:50:24.759Z,45.10
2017-09-02T22:52:52.218Z,38.63
2017-09-02T22:55:19.704Z,49.13
2017-09-02T22:57:47.167Z,36.20
2017-09-02T23:00:14.626Z,39.97
2017-09-02T23:02:42.107Z,34.00
2017-09-02T23:05:09.566Z,41.07
2017-09-02T23:07:37.029Z,34.60
2017-09-02T23:10:04.514Z,35.90
2017-09-02T23:12:31.976Z,38.57
2017-09-02T23:14:59.779Z,41.23
2017-09-02T23:17:27.267Z,39.03
2017-09-02T23:19:54.727Z,37.23
2017-09-02T23:22:22.186Z,32.20
2017-09-02T23:24:49.670Z,35.70
2017-09-02T23:27:17.131Z,36.43
2017-09-02T23:29:44.596Z,34.47
2017-09-02T23:32:12.082Z,31.97
2017-09-02T23:34:39.538Z,29.27
2017-09-02T23:37:06.994Z,36.57
2017-09-02T23:39:34.474Z,37.20
2017-09-02T23:42:01.939Z,32.57
2017-09-02T23:44:29.394Z,34.27
2017-09-02T23:46:56.870Z,34.53
2017-09-02T23:49:24.342Z,31.37
2017-09-02T23:51:51.807Z,36.87
2017-09-02T23:54:19.297Z,34.90
2017-09-02T23:56:46.766Z,37.47
2017-09-02T23:59:14.226Z,37.70
